sensor_id;sensor_type;location;lat;lon;timestamp;P1;durP1;ratioP1;P2;durP2;ratioP2
32347;SDS011;18821;44.800;10.326;2023-04-02T00:02:44;10.10;;;2.08;;
32347;SDS011;18821;44.800;10.326;2023-04-02T00:07:59;5.50;;;1.70;;
32347;SDS011;18821;44.800;10.326;2023-04-02T00:10:38;5.78;;;1.40;;
32347;SDS011;18821;44.800;10.326;2023-04-02T00:15:37;6.30;;;1.70;;
32347;SDS011;18821;44.800;10.326;2023-04-02T00:18:05;9.85;;;1.92;;
32347;SDS011;18821;44.800;10.326;2023-04-02T00:20:32;6.38;;;1.90;;
32347;SDS011;18821;44.800;10.326;2023-04-02T00:23:03;7.90;;;1.90;;
32347;SDS011;18821;44.800;10.326;2023-04-02T00:25:33;6.55;;;1.92;;
32347;SDS011;18821;44.800;10.326;2023-04-02T00:28:01;7.88;;;1.60;;
32347;SDS011;18821;44.800;10.326;2023-04-02T00:30:28;9.63;;;1.70;;
32347;SDS011;18821;44.800;10.326;2023-04-02T00:32:54;7.97;;;1.77;;
32347;SDS011;18821;44.800;10.326;2023-04-02T00:35:25;9.45;;;2.20;;
32347;SDS011;18821;44.800;10.326;2023-04-02T00:37:53;6.63;;;1.67;;
32347;SDS011;18821;44.800;10.326;2023-04-02T00:40:28;8.35;;;1.38;;
32347;SDS011;18821;44.800;10.326;2023-04-02T00:45:29;8.88;;;1.63;;
32347;SDS011;18821;44.800;10.326;2023-04-02T00:47:59;6.60;;;1.60;;
32347;SDS011;18821;44.800;10.326;2023-04-02T00:50:41;8.50;;;2.22;;
32347;SDS011;18821;44.800;10.326;2023-04-02T00:53:18;6.22;;;2.05;;
32347;SDS011;18821;44.800;10.326;2023-04-02T00:55:50;3.97;;;1.30;;
32347;SDS011;18821;44.800;10.326;2023-04-02T00:58:25;8.63;;;1.92;;
32347;SDS011;18821;44.800;10.326;2023-04-02T01:00:54;9.18;;;1.55;;
32347;SDS011;18821;44.800;10.326;2023-04-02T01:13:40;8.93;;;2.15;;
32347;SDS011;18821;44.800;10.326;2023-04-02T01:22:00;6.15;;;1.65;;
32347;SDS011;18821;44.800;10.326;2023-04-02T01:24:38;7.15;;;1.70;;
32347;SDS011;18821;44.800;10.326;2023-04-02T01:27:13;4.95;;;1.63;;
32347;SDS011;18821;44.800;10.326;2023-04-02T01:29:41;4.85;;;2.45;;
32347;SDS011;18821;44.800;10.326;2023-04-02T01:32:16;9.32;;;2.30;;
32347;SDS011;18821;44.800;10.326;2023-04-02T01:34:46;7.65;;;2.60;;
32347;SDS011;18821;44.800;10.326;2023-04-02T01:42:21;9.35;;;1.95;;
32347;SDS011;18821;44.800;10.326;2023-04-02T01:45:00;11.98;;;1.90;;
32347;SDS011;18821;44.800;10.326;2023-04-02T01:47:37;6.90;;;1.73;;
32347;SDS011;18821;44.800;10.326;2023-04-02T01:50:11;7.90;;;1.88;;
32347;SDS011;18821;44.800;10.326;2023-04-02T01:52:41;6.78;;;2.45;;
32347;SDS011;18821;44.800;10.326;2023-04-02T01:55:12;5.13;;;1.55;;
32347;SDS011;18821;44.800;10.326;2023-04-02T01:57:43;4.25;;;1.33;;
32347;SDS011;18821;44.800;10.326;2023-04-02T02:00:14;6.80;;;1.65;;
32347;SDS011;18821;44.800;10.326;2023-04-02T02:02:45;9.15;;;1.88;;
32347;SDS011;18821;44.800;10.326;2023-04-02T02:05:15;8.52;;;1.52;;
32347;SDS011;18821;44.800;10.326;2023-04-02T02:07:45;7.72;;;1.77;;
32347;SDS011;18821;44.800;10.326;2023-04-02T02:10:15;7.68;;;1.67;;
32347;SDS011;18821;44.800;10.326;2023-04-02T02:12:52;11.27;;;1.98;;
32347;SDS011;18821;44.800;10.326;2023-04-02T02:15:19;6.60;;;1.50;;
32347;SDS011;18821;44.800;10.326;2023-04-02T02:17:47;4.80;;;1.50;;
32347;SDS011;18821;44.800;10.326;2023-04-02T02:20:14;5.95;;;1.52;;
32347;SDS011;18821;44.800;10.326;2023-04-02T02:22:45;9.38;;;1.88;;
32347;SDS011;18821;44.800;10.326;2023-04-02T02:25:26;9.60;;;1.75;;
32347;SDS011;18821;44.800;10.326;2023-04-02T02:28:02;12.00;;;3.20;;
32347;SDS011;18821;44.800;10.326;2023-04-02T02:33:33;7.80;;;2.55;;
32347;SDS011;18821;44.800;10.326;2023-04-02T02:36:12;9.13;;;3.17;;
32347;SDS011;18821;44.800;10.326;2023-04-02T02:41:40;6.63;;;2.67;;
32347;SDS011;18821;44.800;10.326;2023-04-02T02:44:22;6.15;;;2.70;;
32347;SDS011;18821;44.800;10.326;2023-04-02T02:46:53;7.63;;;3.45;;
32347;SDS011;18821;44.800;10.326;2023-04-02T02:49:27;10.13;;;3.00;;
32347;SDS011;18821;44.800;10.326;2023-04-02T02:54:55;12.23;;;4.75;;
32347;SDS011;18821;44.800;10.326;2023-04-02T02:57:35;12.27;;;5.82;;
32347;SDS011;18821;44.800;10.326;2023-04-02T03:00:05;14.30;;;6.28;;
32347;SDS011;18821;44.800;10.326;2023-04-02T03:02:35;17.67;;;9.75;;
32347;SDS011;18821;44.800;10.326;2023-04-02T03:05:05;22.67;;;13.18;;
32347;SDS011;18821;44.800;10.326;2023-04-02T03:07:33;31.75;;;16.38;;
32347;SDS011;18821;44.800;10.326;2023-04-02T03:18:13;36.85;;;18.20;;
32347;SDS011;18821;44.800;10.326;2023-04-02T03:21:08;41.95;;;20.90;;
32347;SDS011;18821;44.800;10.326;2023-04-02T03:23:44;46.08;;;22.70;;
32347;SDS011;18821;44.800;10.326;2023-04-02T03:26:33;44.05;;;23.55;;
32347;SDS011;18821;44.800;10.326;2023-04-02T03:29:06;44.53;;;26.23;;
32347;SDS011;18821;44.800;10.326;2023-04-02T03:31:34;56.17;;;27.25;;
32347;SDS011;18821;44.800;10.326;2023-04-02T03:34:35;54.53;;;28.42;;
32347;SDS011;18821;44.800;10.326;2023-04-02T03:37:23;52.58;;;29.35;;
32347;SDS011;18821;44.800;10.326;2023-04-02T03:40:03;53.30;;;26.92;;
32347;SDS011;18821;44.800;10.326;2023-04-02T03:42:43;56.47;;;28.20;;
32347;SDS011;18821;44.800;10.326;2023-04-02T03:45:17;56.90;;;29.77;;
32347;SDS011;18821;44.800;10.326;2023-04-02T03:47:50;52.05;;;28.35;;
32347;SDS011;18821;44.800;10.326;2023-04-02T03:50:26;54.03;;;30.13;;
32347;SDS011;18821;44.800;10.326;2023-04-02T03:53:01;53.17;;;29.35;;
32347;SDS011;18821;44.800;10.326;2023-04-02T03:55:31;58.30;;;31.30;;
32347;SDS011;18821;44.800;10.326;2023-04-02T03:58:08;54.88;;;31.13;;
32347;SDS011;18821;44.800;10.326;2023-04-02T04:00:58;57.25;;;32.30;;
32347;SDS011;18821;44.800;10.326;2023-04-02T04:06:24;56.83;;;31.38;;
32347;SDS011;18821;44.800;10.326;2023-04-02T04:11:25;66.00;;;34.05;;
32347;SDS011;18821;44.800;10.326;2023-04-02T04:13:58;68.28;;;33.50;;
32347;SDS011;18821;44.800;10.326;2023-04-02T04:16:33;63.05;;;33.78;;
32347;SDS011;18821;44.800;10.326;2023-04-02T04:22:08;64.90;;;34.60;;
32347;SDS011;18821;44.800;10.326;2023-04-02T04:24:59;61.45;;;32.17;;
32347;SDS011;18821;44.800;10.326;2023-04-02T04:27:42;57.47;;;31.38;;
32347;SDS011;18821;44.800;10.326;2023-04-02T04:30:23;67.03;;;32.03;;
32347;SDS011;18821;44.800;10.326;2023-04-02T04:33:03;60.30;;;32.78;;
32347;SDS011;18821;44.800;10.326;2023-04-02T04:35:42;53.30;;;31.30;;
32347;SDS011;18821;44.800;10.326;2023-04-02T04:38:18;58.60;;;30.77;;
32347;SDS011;18821;44.800;10.326;2023-04-02T04:41:04;53.40;;;30.42;;
32347;SDS011;18821;44.800;10.326;2023-04-02T04:43:54;55.13;;;30.73;;
32347;SDS011;18821;44.800;10.326;2023-04-02T04:46:44;65.32;;;31.23;;
32347;SDS011;18821;44.800;10.326;2023-04-02T04:49:34;66.18;;;31.92;;
32347;SDS011;18821;44.800;10.326;2023-04-02T04:52:24;62.38;;;33.53;;
32347;SDS011;18821;44.800;10.326;2023-04-02T04:54:51;65.88;;;34.20;;
32347;SDS011;18821;44.800;10.326;2023-04-02T04:57:31;65.88;;;35.10;;
32347;SDS011;18821;44.800;10.326;2023-04-02T05:05:15;68.13;;;36.38;;
32347;SDS011;18821;44.800;10.326;2023-04-02T05:07:55;75.35;;;39.00;;
32347;SDS011;18821;44.800;10.326;2023-04-02T05:13:17;68.82;;;35.50;;
32347;SDS011;18821;44.800;10.326;2023-04-02T05:16:00;61.20;;;34.80;;
32347;SDS011;18821;44.800;10.326;2023-04-02T05:18:51;58.45;;;33.40;;
32347;SDS011;18821;44.800;10.326;2023-04-02T05:21:41;62.80;;;33.97;;
32347;SDS011;18821;44.800;10.326;2023-04-02T05:24:39;60.80;;;32.70;;
32347;SDS011;18821;44.800;10.326;2023-04-02T05:27:42;58.20;;;32.47;;
32347;SDS011;18821;44.800;10.326;2023-04-02T05:35:46;65.63;;;30.98;;
32347;SDS011;18821;44.800;10.326;2023-04-02T05:38:23;55.53;;;32.50;;
32347;SDS011;18821;44.800;10.326;2023-04-02T05:40:57;55.78;;;29.65;;
32347;SDS011;18821;44.800;10.326;2023-04-02T05:43:31;54.30;;;29.90;;
32347;SDS011;18821;44.800;10.326;2023-04-02T05:45:59;55.60;;;29.95;;
32347;SDS011;18821;44.800;10.326;2023-04-02T05:48:35;61.83;;;32.60;;
32347;SDS011;18821;44.800;10.326;2023-04-02T05:51:06;62.15;;;33.00;;
32347;SDS011;18821;44.800;10.326;2023-04-02T05:53:39;62.97;;;34.05;;
32347;SDS011;18821;44.800;10.326;2023-04-02T05:56:10;62.80;;;34.60;;
32347;SDS011;18821;44.800;10.326;2023-04-02T06:01:34;56.72;;;31.30;;
32347;SDS011;18821;44.800;10.326;2023-04-02T06:04:41;58.90;;;32.40;;
32347;SDS011;18821;44.800;10.326;2023-04-02T06:07:17;69.32;;;37.35;;
32347;SDS011;18821;44.800;10.326;2023-04-02T06:12:40;82.15;;;41.30;;
32347;SDS011;18821;44.800;10.326;2023-04-02T06:15:19;82.95;;;43.03;;
32347;SDS011;18821;44.800;10.326;2023-04-02T06:17:56;88.57;;;44.78;;
32347;SDS011;18821;44.800;10.326;2023-04-02T06:20:29;92.15;;;44.42;;
32347;SDS011;18821;44.800;10.326;2023-04-02T06:22:56;91.75;;;44.30;;
32347;SDS011;18821;44.800;10.326;2023-04-02T06:25:39;94.47;;;50.55;;
32347;SDS011;18821;44.800;10.326;2023-04-02T06:28:11;110.03;;;50.85;;
32347;SDS011;18821;44.800;10.326;2023-04-02T06:30:48;98.68;;;50.60;;
32347;SDS011;18821;44.800;10.326;2023-04-02T06:33:24;111.97;;;52.70;;
32347;SDS011;18821;44.800;10.326;2023-04-02T06:35:50;107.88;;;51.80;;
32347;SDS011;18821;44.800;10.326;2023-04-02T06:38:26;124.38;;;55.25;;
32347;SDS011;18821;44.800;10.326;2023-04-02T06:40:59;112.93;;;55.75;;
32347;SDS011;18821;44.800;10.326;2023-04-02T06:43:58;116.05;;;52.63;;
32347;SDS011;18821;44.800;10.326;2023-04-02T06:46:47;104.45;;;50.53;;
32347;SDS011;18821;44.800;10.326;2023-04-02T06:49:22;104.53;;;53.13;;
32347;SDS011;18821;44.800;10.326;2023-04-02T06:52:03;102.80;;;50.67;;
32347;SDS011;18821;44.800;10.326;2023-04-02T06:54:35;107.32;;;51.97;;
32347;SDS011;18821;44.800;10.326;2023-04-02T06:57:05;101.50;;;52.67;;
32347;SDS011;18821;44.800;10.326;2023-04-02T06:59:36;112.93;;;55.55;;
32347;SDS011;18821;44.800;10.326;2023-04-02T07:02:18;117.35;;;53.28;;
32347;SDS011;18821;44.800;10.326;2023-04-02T07:07:19;111.05;;;52.78;;
32347;SDS011;18821;44.800;10.326;2023-04-02T07:09:46;107.63;;;53.40;;
32347;SDS011;18821;44.800;10.326;2023-04-02T07:12:13;103.05;;;52.63;;
32347;SDS011;18821;44.800;10.326;2023-04-02T07:14:41;116.72;;;57.53;;
32347;SDS011;18821;44.800;10.326;2023-04-02T07:17:13;107.70;;;54.03;;
32347;SDS011;18821;44.800;10.326;2023-04-02T07:19:42;110.67;;;58.93;;
32347;SDS011;18821;44.800;10.326;2023-04-02T07:22:16;109.75;;;56.20;;
32347;SDS011;18821;44.800;10.326;2023-04-02T07:24:45;120.30;;;56.45;;
32347;SDS011;18821;44.800;10.326;2023-04-02T07:27:11;110.35;;;55.75;;
32347;SDS011;18821;44.800;10.326;2023-04-02T07:29:39;112.63;;;55.22;;
32347;SDS011;18821;44.800;10.326;2023-04-02T07:32:08;111.85;;;52.13;;
32347;SDS011;18821;44.800;10.326;2023-04-02T07:34:38;107.13;;;52.05;;
32347;SDS011;18821;44.800;10.326;2023-04-02T07:37:05;105.53;;;51.45;;
32347;SDS011;18821;44.800;10.326;2023-04-02T07:39:32;104.68;;;53.50;;
32347;SDS011;18821;44.800;10.326;2023-04-02T07:41:59;104.68;;;51.67;;
32347;SDS011;18821;44.800;10.326;2023-04-02T07:44:27;107.85;;;54.20;;
32347;SDS011;18821;44.800;10.326;2023-04-02T07:46:53;121.25;;;56.20;;
32347;SDS011;18821;44.800;10.326;2023-04-02T07:49:19;101.20;;;51.33;;
32347;SDS011;18821;44.800;10.326;2023-04-02T07:51:46;103.40;;;52.83;;
32347;SDS011;18821;44.800;10.326;2023-04-02T07:54:12;96.18;;;49.88;;
32347;SDS011;18821;44.800;10.326;2023-04-02T07:56:38;94.88;;;49.35;;
32347;SDS011;18821;44.800;10.326;2023-04-02T07:59:04;102.78;;;51.50;;
32347;SDS011;18821;44.800;10.326;2023-04-02T08:01:30;98.28;;;50.97;;
32347;SDS011;18821;44.800;10.326;2023-04-02T08:04:00;97.13;;;50.53;;
32347;SDS011;18821;44.800;10.326;2023-04-02T08:06:27;91.95;;;46.85;;
32347;SDS011;18821;44.800;10.326;2023-04-02T08:08:54;91.82;;;47.45;;
32347;SDS011;18821;44.800;10.326;2023-04-02T08:11:21;94.15;;;49.15;;
32347;SDS011;18821;44.800;10.326;2023-04-02T08:13:47;86.78;;;47.20;;
32347;SDS011;18821;44.800;10.326;2023-04-02T08:16:12;92.30;;;45.88;;
32347;SDS011;18821;44.800;10.326;2023-04-02T08:18:38;92.25;;;48.45;;
32347;SDS011;18821;44.800;10.326;2023-04-02T08:21:05;90.30;;;46.17;;
32347;SDS011;18821;44.800;10.326;2023-04-02T08:23:33;90.50;;;44.53;;
32347;SDS011;18821;44.800;10.326;2023-04-02T08:25:59;82.30;;;43.40;;
32347;SDS011;18821;44.800;10.326;2023-04-02T08:28:26;80.80;;;44.47;;
32347;SDS011;18821;44.800;10.326;2023-04-02T08:30:52;73.22;;;37.40;;
32347;SDS011;18821;44.800;10.326;2023-04-02T08:33:18;66.78;;;35.92;;
32347;SDS011;18821;44.800;10.326;2023-04-02T08:35:45;77.45;;;41.13;;
32347;SDS011;18821;44.800;10.326;2023-04-02T08:38:21;73.20;;;40.40;;
32347;SDS011;18821;44.800;10.326;2023-04-02T08:40:51;61.50;;;34.25;;
32347;SDS011;18821;44.800;10.326;2023-04-02T08:49:07;62.05;;;31.45;;
32347;SDS011;18821;44.800;10.326;2023-04-02T08:51:38;63.28;;;32.53;;
32347;SDS011;18821;44.800;10.326;2023-04-02T08:56:43;70.72;;;34.80;;
32347;SDS011;18821;44.800;10.326;2023-04-02T09:04:52;51.95;;;28.90;;
32347;SDS011;18821;44.800;10.326;2023-04-02T09:07:20;54.78;;;29.95;;
32347;SDS011;18821;44.800;10.326;2023-04-02T09:09:47;52.70;;;29.23;;
32347;SDS011;18821;44.800;10.326;2023-04-02T09:12:18;43.15;;;24.33;;
32347;SDS011;18821;44.800;10.326;2023-04-02T09:17:23;53.13;;;27.70;;
32347;SDS011;18821;44.800;10.326;2023-04-02T09:22:46;57.80;;;32.95;;
32347;SDS011;18821;44.800;10.326;2023-04-02T09:25:23;60.33;;;33.13;;
32347;SDS011;18821;44.800;10.326;2023-04-02T09:28:01;59.80;;;33.38;;
32347;SDS011;18821;44.800;10.326;2023-04-02T09:33:05;63.35;;;35.70;;
32347;SDS011;18821;44.800;10.326;2023-04-02T09:35:35;64.20;;;36.10;;
32347;SDS011;18821;44.800;10.326;2023-04-02T09:48:48;60.40;;;34.75;;
32347;SDS011;18821;44.800;10.326;2023-04-02T09:51:21;56.13;;;33.15;;
32347;SDS011;18821;44.800;10.326;2023-04-02T09:53:50;52.53;;;30.98;;
32347;SDS011;18821;44.800;10.326;2023-04-02T09:56:38;50.45;;;29.83;;
32347;SDS011;18821;44.800;10.326;2023-04-02T09:59:06;52.80;;;31.45;;
32347;SDS011;18821;44.800;10.326;2023-04-02T10:01:45;53.80;;;29.80;;
32347;SDS011;18821;44.800;10.326;2023-04-02T10:07:01;51.75;;;31.02;;
32347;SDS011;18821;44.800;10.326;2023-04-02T10:09:35;55.03;;;30.77;;
32347;SDS011;18821;44.800;10.326;2023-04-02T10:12:03;52.38;;;29.83;;
32347;SDS011;18821;44.800;10.326;2023-04-02T10:14:36;54.63;;;29.88;;
32347;SDS011;18821;44.800;10.326;2023-04-02T10:17:13;55.47;;;30.85;;
32347;SDS011;18821;44.800;10.326;2023-04-02T10:19:52;49.95;;;27.35;;
32347;SDS011;18821;44.800;10.326;2023-04-02T10:22:38;43.88;;;26.67;;
32347;SDS011;18821;44.800;10.326;2023-04-02T10:25:12;48.83;;;28.10;;
32347;SDS011;18821;44.800;10.326;2023-04-02T10:30:24;38.55;;;24.63;;
32347;SDS011;18821;44.800;10.326;2023-04-02T10:33:02;36.63;;;21.92;;
32347;SDS011;18821;44.800;10.326;2023-04-02T10:35:49;36.20;;;21.17;;
32347;SDS011;18821;44.800;10.326;2023-04-02T10:38:23;37.28;;;23.48;;
32347;SDS011;18821;44.800;10.326;2023-04-02T10:41:02;34.92;;;21.25;;
32347;SDS011;18821;44.800;10.326;2023-04-02T10:43:53;38.00;;;20.83;;
32347;SDS011;18821;44.800;10.326;2023-04-02T10:52:18;35.53;;;20.75;;
32347;SDS011;18821;44.800;10.326;2023-04-02T10:54:48;32.72;;;20.15;;
32347;SDS011;18821;44.800;10.326;2023-04-02T11:05:34;19.65;;;12.13;;
32347;SDS011;18821;44.800;10.326;2023-04-02T11:08:19;21.48;;;11.63;;
32347;SDS011;18821;44.800;10.326;2023-04-02T11:11:16;20.48;;;11.73;;
32347;SDS011;18821;44.800;10.326;2023-04-02T11:16:36;21.73;;;13.15;;
32347;SDS011;18821;44.800;10.326;2023-04-02T11:19:20;21.60;;;12.15;;
32347;SDS011;18821;44.800;10.326;2023-04-02T11:21:53;19.27;;;12.57;;
32347;SDS011;18821;44.800;10.326;2023-04-02T11:29:40;22.05;;;11.82;;
32347;SDS011;18821;44.800;10.326;2023-04-02T11:50:28;4.47;;;3.20;;
32347;SDS011;18821;44.800;10.326;2023-04-02T12:07:07;10.50;;;6.25;;
32347;SDS011;18821;44.800;10.326;2023-04-02T12:11:47;10.10;;;6.22;;
32347;SDS011;18821;44.800;10.326;2023-04-02T12:14:36;9.65;;;6.35;;
32347;SDS011;18821;44.800;10.326;2023-04-02T12:20:13;9.40;;;6.72;;
32347;SDS011;18821;44.800;10.326;2023-04-02T12:22:49;10.68;;;6.45;;
32347;SDS011;18821;44.800;10.326;2023-04-02T12:30:32;8.65;;;5.18;;
32347;SDS011;18821;44.800;10.326;2023-04-02T12:33:13;9.13;;;5.50;;
32347;SDS011;18821;44.800;10.326;2023-04-02T12:35:38;10.13;;;6.55;;
32347;SDS011;18821;44.800;10.326;2023-04-02T12:38:20;9.48;;;5.63;;
32347;SDS011;18821;44.800;10.326;2023-04-02T12:43:30;10.68;;;6.28;;
32347;SDS011;18821;44.800;10.326;2023-04-02T12:46:01;8.15;;;5.10;;
32347;SDS011;18821;44.800;10.326;2023-04-02T12:48:32;7.95;;;4.97;;
32347;SDS011;18821;44.800;10.326;2023-04-02T12:50:59;11.25;;;6.20;;
32347;SDS011;18821;44.800;10.326;2023-04-02T12:56:00;8.75;;;5.68;;
32347;SDS011;18821;44.800;10.326;2023-04-02T12:58:37;7.50;;;4.95;;
32347;SDS011;18821;44.800;10.326;2023-04-02T13:01:24;6.85;;;4.50;;
32347;SDS011;18821;44.800;10.326;2023-04-02T13:06:39;9.70;;;5.93;;
32347;SDS011;18821;44.800;10.326;2023-04-02T13:09:26;11.98;;;6.75;;
32347;SDS011;18821;44.800;10.326;2023-04-02T13:12:00;9.32;;;6.53;;
32347;SDS011;18821;44.800;10.326;2023-04-02T13:14:26;8.18;;;4.65;;
32347;SDS011;18821;44.800;10.326;2023-04-02T13:16:53;9.85;;;5.72;;
32347;SDS011;18821;44.800;10.326;2023-04-02T13:19:21;8.65;;;5.07;;
32347;SDS011;18821;44.800;10.326;2023-04-02T13:21:50;7.13;;;4.40;;
32347;SDS011;18821;44.800;10.326;2023-04-02T13:24:27;6.15;;;4.07;;
32347;SDS011;18821;44.800;10.326;2023-04-02T13:26:59;6.75;;;4.22;;
32347;SDS011;18821;44.800;10.326;2023-04-02T13:29:27;5.47;;;2.90;;
32347;SDS011;18821;44.800;10.326;2023-04-02T13:32:01;3.67;;;2.65;;
32347;SDS011;18821;44.800;10.326;2023-04-02T13:34:30;4.53;;;2.72;;
32347;SDS011;18821;44.800;10.326;2023-04-02T13:36:56;4.70;;;2.83;;
32347;SDS011;18821;44.800;10.326;2023-04-02T13:39:23;3.88;;;2.42;;
32347;SDS011;18821;44.800;10.326;2023-04-02T13:41:59;5.07;;;2.10;;
32347;SDS011;18821;44.800;10.326;2023-04-02T13:44:31;3.20;;;2.17;;
32347;SDS011;18821;44.800;10.326;2023-04-02T13:46:58;4.63;;;1.65;;
32347;SDS011;18821;44.800;10.326;2023-04-02T13:49:25;2.33;;;1.63;;
32347;SDS011;18821;44.800;10.326;2023-04-02T13:51:52;1.75;;;1.23;;
32347;SDS011;18821;44.800;10.326;2023-04-02T13:54:31;1.88;;;0.85;;
32347;SDS011;18821;44.800;10.326;2023-04-02T13:57:07;4.05;;;1.20;;
32347;SDS011;18821;44.800;10.326;2023-04-02T13:59:33;2.55;;;1.30;;
32347;SDS011;18821;44.800;10.326;2023-04-02T14:02:03;1.73;;;1.20;;
32347;SDS011;18821;44.800;10.326;2023-04-02T14:04:38;2.00;;;1.30;;
32347;SDS011;18821;44.800;10.326;2023-04-02T14:13:06;1.77;;;1.23;;
32347;SDS011;18821;44.800;10.326;2023-04-02T14:15:44;3.05;;;1.60;;
32347;SDS011;18821;44.800;10.326;2023-04-02T14:19:04;3.75;;;2.58;;
32347;SDS011;18821;44.800;10.326;2023-04-02T14:24:30;3.70;;;2.20;;
32347;SDS011;18821;44.800;10.326;2023-04-02T14:27:23;5.25;;;2.90;;
32347;SDS011;18821;44.800;10.326;2023-04-02T14:32:59;4.03;;;2.92;;
32347;SDS011;18821;44.800;10.326;2023-04-02T14:35:36;6.53;;;3.50;;
32347;SDS011;18821;44.800;10.326;2023-04-02T14:38:19;5.80;;;3.97;;
32347;SDS011;18821;44.800;10.326;2023-04-02T14:43:44;6.78;;;3.95;;
32347;SDS011;18821;44.800;10.326;2023-04-02T14:46:18;8.13;;;3.95;;
32347;SDS011;18821;44.800;10.326;2023-04-02T14:51:52;7.50;;;5.05;;
32347;SDS011;18821;44.800;10.326;2023-04-02T14:54:58;6.30;;;4.28;;
32347;SDS011;18821;44.800;10.326;2023-04-02T14:57:23;7.72;;;5.07;;
32347;SDS011;18821;44.800;10.326;2023-04-02T15:02:56;7.60;;;4.57;;
32347;SDS011;18821;44.800;10.326;2023-04-02T15:05:46;8.20;;;5.63;;
32347;SDS011;18821;44.800;10.326;2023-04-02T15:08:18;9.00;;;6.32;;
32347;SDS011;18821;44.800;10.326;2023-04-02T15:10:58;7.93;;;5.15;;
32347;SDS011;18821;44.800;10.326;2023-04-02T15:16:04;8.68;;;4.90;;
32347;SDS011;18821;44.800;10.326;2023-04-02T15:18:35;7.32;;;5.07;;
32347;SDS011;18821;44.800;10.326;2023-04-02T15:26:20;10.32;;;6.57;;
32347;SDS011;18821;44.800;10.326;2023-04-02T15:29:02;11.27;;;7.00;;
32347;SDS011;18821;44.800;10.326;2023-04-02T15:31:53;12.65;;;7.93;;
32347;SDS011;18821;44.800;10.326;2023-04-02T15:34:31;12.77;;;8.40;;
32347;SDS011;18821;44.800;10.326;2023-04-02T15:37:06;12.85;;;8.40;;
32347;SDS011;18821;44.800;10.326;2023-04-02T15:56:33;6.55;;;4.63;;
32347;SDS011;18821;44.800;10.326;2023-04-02T15:59:29;7.72;;;5.10;;
32347;SDS011;18821;44.800;10.326;2023-04-02T16:10:37;8.73;;;5.30;;
32347;SDS011;18821;44.800;10.326;2023-04-02T16:13:28;7.32;;;4.57;;
32347;SDS011;18821;44.800;10.326;2023-04-02T16:18:57;8.73;;;4.75;;
32347;SDS011;18821;44.800;10.326;2023-04-02T16:21:28;7.40;;;4.20;;
32347;SDS011;18821;44.800;10.326;2023-04-02T16:23:57;8.30;;;4.30;;
32347;SDS011;18821;44.800;10.326;2023-04-02T16:31:51;11.65;;;4.35;;
32347;SDS011;18821;44.800;10.326;2023-04-02T16:39:50;8.23;;;4.00;;
32347;SDS011;18821;44.800;10.326;2023-04-02T16:48:10;6.32;;;4.07;;
32347;SDS011;18821;44.800;10.326;2023-04-02T16:51:00;11.07;;;4.75;;
32347;SDS011;18821;44.800;10.326;2023-04-02T16:56:34;11.10;;;3.97;;
32347;SDS011;18821;44.800;10.326;2023-04-02T17:10:11;10.20;;;4.05;;
32347;SDS011;18821;44.800;10.326;2023-04-02T17:12:50;5.68;;;3.50;;
32347;SDS011;18821;44.800;10.326;2023-04-02T17:15:26;12.70;;;4.97;;
32347;SDS011;18821;44.800;10.326;2023-04-02T17:18:12;7.28;;;3.67;;
32347;SDS011;18821;44.800;10.326;2023-04-02T17:20:46;10.15;;;4.93;;
32347;SDS011;18821;44.800;10.326;2023-04-02T17:23:14;11.73;;;5.00;;
32347;SDS011;18821;44.800;10.326;2023-04-02T17:26:00;9.60;;;4.20;;
32347;SDS011;18821;44.800;10.326;2023-04-02T17:28:33;9.65;;;3.53;;
32347;SDS011;18821;44.800;10.326;2023-04-02T17:31:12;6.30;;;3.10;;
32347;SDS011;18821;44.800;10.326;2023-04-02T17:33:51;7.38;;;4.15;;
32347;SDS011;18821;44.800;10.326;2023-04-02T17:36:26;8.40;;;3.78;;
32347;SDS011;18821;44.800;10.326;2023-04-02T17:56:53;8.90;;;3.25;;
32347;SDS011;18821;44.800;10.326;2023-04-02T18:04:52;7.97;;;2.42;;
32347;SDS011;18821;44.800;10.326;2023-04-02T18:10:12;8.60;;;3.78;;
32347;SDS011;18821;44.800;10.326;2023-04-02T18:12:52;8.50;;;3.83;;
32347;SDS011;18821;44.800;10.326;2023-04-02T18:17:52;6.40;;;2.60;;
32347;SDS011;18821;44.800;10.326;2023-04-02T18:31:41;8.23;;;3.70;;
32347;SDS011;18821;44.800;10.326;2023-04-02T18:44:57;11.57;;;3.30;;
32347;SDS011;18821;44.800;10.326;2023-04-02T18:52:59;6.82;;;3.58;;
32347;SDS011;18821;44.800;10.326;2023-04-02T18:55:35;6.28;;;3.33;;
32347;SDS011;18821;44.800;10.326;2023-04-02T18:58:08;9.38;;;3.35;;
32347;SDS011;18821;44.800;10.326;2023-04-02T19:00:39;5.38;;;3.33;;
32347;SDS011;18821;44.800;10.326;2023-04-02T19:06:00;7.70;;;3.05;;
32347;SDS011;18821;44.800;10.326;2023-04-02T19:11:20;7.72;;;3.15;;
32347;SDS011;18821;44.800;10.326;2023-04-02T19:13:53;10.07;;;3.45;;
32347;SDS011;18821;44.800;10.326;2023-04-02T19:16:29;7.38;;;3.33;;
32347;SDS011;18821;44.800;10.326;2023-04-02T19:19:16;7.03;;;3.40;;
32347;SDS011;18821;44.800;10.326;2023-04-02T19:24:25;11.10;;;3.95;;
32347;SDS011;18821;44.800;10.326;2023-04-02T19:32:26;11.05;;;4.22;;
32347;SDS011;18821;44.800;10.326;2023-04-02T19:35:22;8.90;;;4.40;;
32347;SDS011;18821;44.800;10.326;2023-04-02T19:43:25;13.70;;;5.20;;
32347;SDS011;18821;44.800;10.326;2023-04-02T19:45:51;9.45;;;5.05;;
32347;SDS011;18821;44.800;10.326;2023-04-02T19:48:25;10.32;;;5.32;;
32347;SDS011;18821;44.800;10.326;2023-04-02T19:50:55;9.32;;;5.72;;
32347;SDS011;18821;44.800;10.326;2023-04-02T19:53:21;9.32;;;5.72;;
32347;SDS011;18821;44.800;10.326;2023-04-02T19:55:47;16.02;;;5.32;;
32347;SDS011;18821;44.800;10.326;2023-04-02T19:58:25;12.18;;;5.75;;
32347;SDS011;18821;44.800;10.326;2023-04-02T20:00:53;10.88;;;5.93;;
32347;SDS011;18821;44.800;10.326;2023-04-02T20:03:19;9.05;;;5.28;;
32347;SDS011;18821;44.800;10.326;2023-04-02T20:05:47;8.55;;;5.03;;
32347;SDS011;18821;44.800;10.326;2023-04-02T20:08:13;16.85;;;6.47;;
32347;SDS011;18821;44.800;10.326;2023-04-02T20:10:39;10.07;;;5.22;;
32347;SDS011;18821;44.800;10.326;2023-04-02T20:13:06;8.60;;;4.38;;
32347;SDS011;18821;44.800;10.326;2023-04-02T20:15:32;6.65;;;4.30;;
32347;SDS011;18821;44.800;10.326;2023-04-02T20:17:59;9.07;;;4.07;;
32347;SDS011;18821;44.800;10.326;2023-04-02T20:20:25;6.50;;;3.30;;
32347;SDS011;18821;44.800;10.326;2023-04-02T20:22:51;6.60;;;3.70;;
32347;SDS011;18821;44.800;10.326;2023-04-02T20:25:17;6.13;;;3.90;;
32347;SDS011;18821;44.800;10.326;2023-04-02T20:27:43;10.38;;;3.83;;
32347;SDS011;18821;44.800;10.326;2023-04-02T20:30:09;5.97;;;3.53;;
32347;SDS011;18821;44.800;10.326;2023-04-02T20:32:39;7.78;;;4.18;;
32347;SDS011;18821;44.800;10.326;2023-04-02T20:35:05;6.75;;;3.97;;
32347;SDS011;18821;44.800;10.326;2023-04-02T20:37:31;8.20;;;3.83;;
32347;SDS011;18821;44.800;10.326;2023-04-02T20:39:59;7.45;;;3.83;;
32347;SDS011;18821;44.800;10.326;2023-04-02T20:42:25;11.60;;;4.53;;
32347;SDS011;18821;44.800;10.326;2023-04-02T20:44:51;6.35;;;3.85;;
32347;SDS011;18821;44.800;10.326;2023-04-02T20:47:17;8.95;;;4.30;;
32347;SDS011;18821;44.800;10.326;2023-04-02T20:49:43;7.55;;;4.13;;
32347;SDS011;18821;44.800;10.326;2023-04-02T20:52:09;9.30;;;4.45;;